»·PEaware :: WAT234 KSLC-KLAS

WAT234 :: KSLC-KLAS

FLIGHT INFORMATION

Flight Status: Arrived
Operator:
Walker Air Transport
More flights by this operator :: More flights under this callsign
Pilot: Eduardo Elias G. (24838)
Aircraft: Boeing 747-8
(B748)
More flights by this aircraft type
Origin: KSLC Salt Lake City Intl
United States
Destination: KLAS McCarran Intl
United States
More flights between these airports :: More routes between these airports
Route: +ZIONZ1 EHK KSINO SITEE4
File this flight plan on PilotEdge
Remarks:
Altitude:
(Current/Filed)
38,000ft
Speed:
(Current/Filed)
510kts
Departed: 14-Sep-20 04:03 PM
Arrived: 14-Sep-20 04:58 PM
Distance/Time
Traveled:
319nm/0:55
Distance/Time
To Go:
Arrived

Flight Plot

Page will automatically refresh every two minutes.

Flight plan parsing failed; only flown route is shown


Map Options




Map Legend


Flown Route
Filed Route
Departure Airport
Arrival Airport
Navaid (VOR, NDB)
Fix

Horizontal Profiles

Position Reports

Time Latitude Longitude Heading Altitude Ground
Speed
14-Sep-20 15:28 40.788278 -111.981966 101 4240ft 0kts
14-Sep-20 15:29 40.788278 -111.981966 101 4240ft 0kts
14-Sep-20 15:30 40.788278 -111.981966 101 4240ft 0kts
14-Sep-20 15:31 40.788278 -111.981966 101 4240ft 0kts
14-Sep-20 15:32 40.788278 -111.981966 101 4240ft 0kts
14-Sep-20 15:33 40.788278 -111.981966 101 4240ft 0kts
14-Sep-20 15:34 40.788278 -111.981966 101 4240ft 0kts
14-Sep-20 15:35 40.788278 -111.981966 101 4240ft 0kts
14-Sep-20 15:36 40.788278 -111.981966 101 4240ft 0kts
14-Sep-20 15:37 40.788278 -111.981966 101 4240ft 0kts
14-Sep-20 15:38 40.788278 -111.981966 101 4240ft 0kts
14-Sep-20 15:40 40.788278 -111.981966 101 4240ft 0kts
14-Sep-20 15:40 40.788278 -111.981966 101 4240ft 0kts
14-Sep-20 15:41 40.788278 -111.981966 101 4240ft 0kts
14-Sep-20 15:42 40.788310 -111.982338 81 4240ft 2kts
14-Sep-20 15:43 40.787878 -111.983010 6 4240ft 2kts
14-Sep-20 15:44 40.787855 -111.983014 5 4240ft 0kts
14-Sep-20 15:45 40.787855 -111.983014 5 4240ft 0kts
14-Sep-20 15:46 40.787856 -111.983014 5 4240ft 0kts
14-Sep-20 15:47 40.788022 -111.982993 5 4240ft 0kts
14-Sep-20 15:48 40.790730 -111.982951 354 4240ft 12kts
14-Sep-20 15:49 40.792380 -111.984825 265 4240ft 8kts
14-Sep-20 15:50 40.792172 -111.987897 264 4240ft 14kts
14-Sep-20 15:51 40.792680 -111.994427 355 4240ft 14kts
14-Sep-20 15:52 40.796185 -111.994813 355 4240ft 11kts
14-Sep-20 15:53 40.799163 -111.995146 354 4240ft 10kts
14-Sep-20 15:54 40.805685 -111.995945 356 4240ft 25kts
14-Sep-20 15:55 40.808311 -111.996712 275 4240ft 0kts
14-Sep-20 15:56 40.808057 -111.997477 235 4240ft 0kts
14-Sep-20 15:57 40.808055 -111.997481 235 4240ft 0kts
14-Sep-20 15:58 40.808053 -111.997486 235 4240ft 0kts
14-Sep-20 15:59 40.808050 -111.997490 235 4240ft 0kts
14-Sep-20 16:00 40.808048 -111.997495 235 4240ft 0kts
14-Sep-20 16:01 40.807682 -111.998624 260 4240ft 15kts
14-Sep-20 16:02 40.797744 -111.998103 175 4240ft 137kts
14-Sep-20 16:03 40.742548 -111.990117 172 6505ft 220kts
14-Sep-20 16:04 40.671749 -111.975379 173 8335ft 277kts
14-Sep-20 16:05 40.593427 -111.965750 176 10101ft 290kts
14-Sep-20 16:06 40.500421 -111.956082 176 11790ft 362kts
14-Sep-20 16:07 40.396835 -111.947409 177 15536ft 383kts
14-Sep-20 16:08 40.287557 -111.940016 176 18860ft 404kts
14-Sep-20 16:09 40.172872 -111.953794 186 21982ft 422kts
14-Sep-20 16:10 40.053593 -111.971715 185 24768ft 440kts
14-Sep-20 16:11 39.929601 -111.989788 186 27136ft 458kts
14-Sep-20 16:12 39.800731 -112.008543 186 29104ft 474kts
14-Sep-20 16:13 39.667673 -112.027999 186 30821ft 486kts
14-Sep-20 16:14 39.532045 -112.047585 187 32523ft 489kts
14-Sep-20 16:15 39.397929 -112.066837 187 34316ft 483kts
14-Sep-20 16:16 39.264531 -112.085730 188 35780ft 479kts
14-Sep-20 16:17 39.133526 -112.111483 202 37023ft 471kts
14-Sep-20 16:18 39.017903 -112.187813 212 38162ft 465kts
14-Sep-20 16:19 38.905482 -112.270168 211 38295ft 468kts
14-Sep-20 16:20 38.788898 -112.354907 211 38300ft 491kts
14-Sep-20 16:21 38.668860 -112.441820 211 38305ft 496kts
14-Sep-20 16:22 38.548713 -112.528248 211 38304ft 496kts
14-Sep-20 16:23 38.428393 -112.614445 211 38299ft 496kts
14-Sep-20 16:24 38.307807 -112.700498 211 38299ft 495kts
14-Sep-20 16:25 38.187478 -112.786041 211 38304ft 495kts
14-Sep-20 16:26 38.067421 -112.871089 211 38316ft 495kts
14-Sep-20 16:27 37.947063 -112.956194 211 38322ft 496kts
14-Sep-20 16:28 37.826521 -113.040759 211 38311ft 496kts
14-Sep-20 16:29 37.714568 -113.129245 217 38307ft 453kts
14-Sep-20 16:30 37.610509 -113.218468 216 38303ft 453kts
14-Sep-20 16:31 37.505338 -113.307598 216 38279ft 464kts
14-Sep-20 16:32 37.395806 -113.400819 216 38230ft 482kts
14-Sep-20 16:33 37.284553 -113.494682 216 37406ft 478kts
14-Sep-20 16:35 37.179549 -113.582906 216 35887ft 436kts
14-Sep-20 16:36 37.079957 -113.666298 216 33137ft 422kts
14-Sep-20 16:37 36.983865 -113.746511 215 30439ft 409kts
14-Sep-20 16:38 36.890526 -113.824187 215 27818ft 396kts
14-Sep-20 16:39 36.800419 -113.899238 214 25304ft 386kts
14-Sep-20 16:40 36.711835 -113.972447 213 23569ft 375kts
14-Sep-20 16:41 36.625878 -114.043226 213 21910ft 366kts
14-Sep-20 16:42 36.552567 -114.127564 235 20252ft 358kts
14-Sep-20 16:43 36.501776 -114.229312 237 18887ft 321kts
14-Sep-20 16:44 36.454204 -114.322249 236 15993ft 315kts
14-Sep-20 16:45 36.407161 -114.413582 236 12886ft 310kts
14-Sep-20 16:46 36.361868 -114.501734 235 12122ft 299kts
14-Sep-20 16:47 36.318068 -114.586603 235 11580ft 277kts
14-Sep-20 16:48 36.266077 -114.645053 202 10251ft 246kts
14-Sep-20 16:49 36.201232 -114.672377 198 9124ft 246kts
14-Sep-20 16:50 36.132771 -114.701791 198 8556ft 276kts
14-Sep-20 16:50 36.081014 -114.737277 244 7994ft 256kts
14-Sep-20 16:51 36.073692 -114.823145 268 6907ft 231kts
14-Sep-20 16:53 36.073851 -114.907790 268 5599ft 188kts
14-Sep-20 16:54 36.073807 -114.967418 267 4669ft 169kts
14-Sep-20 16:54 36.073766 -115.015609 267 3919ft 167kts
14-Sep-20 16:55 36.073625 -115.073137 268 3040ft 166kts
14-Sep-20 16:56 36.073606 -115.130210 268 2198ft 159kts
14-Sep-20 16:57 36.074898 -115.155510 302 2194ft 0kts
14-Sep-20 16:58 36.077642 -115.158260 358 2194ft 0kts
14-Sep-20 16:59 36.077644 -115.158260 358 2194ft 0kts
14-Sep-20 17:00 36.078040 -115.157515 88 2194ft 22kts
14-Sep-20 17:01 36.077987 -115.147584 60 2194ft 15kts
14-Sep-20 17:02 36.078281 -115.143386 95 2194ft 11kts
14-Sep-20 17:03 36.078301 -115.139733 89 2194ft 9kts
14-Sep-20 17:04 36.078279 -115.136170 88 2194ft 12kts
14-Sep-20 17:05 36.080318 -115.134149 287 2194ft 7kts
14-Sep-20 17:06 36.080382 -115.134739 274 2194ft 0kts

Navigation Log

Ident Type
Flight plan parsing failed, navigation log unavailable